sensor_id;sensor_type;location;lat;lon;timestamp;P1;durP1;ratioP1;P2;durP2;ratioP2
13425;SDS011;6785;57.918;12.530;2023-05-27T00:01:11;23.40;;;5.57;;
13425;SDS011;6785;57.918;12.530;2023-05-27T00:03:38;25.27;;;5.90;;
13425;SDS011;6785;57.918;12.530;2023-05-27T00:06:05;19.00;;;4.50;;
13425;SDS011;6785;57.918;12.530;2023-05-27T00:08:32;30.50;;;4.77;;
13425;SDS011;6785;57.918;12.530;2023-05-27T00:10:59;26.33;;;5.80;;
13425;SDS011;6785;57.918;12.530;2023-05-27T00:13:27;19.63;;;6.20;;
13425;SDS011;6785;57.918;12.530;2023-05-27T00:15:53;25.57;;;5.07;;
13425;SDS011;6785;57.918;12.530;2023-05-27T00:18:20;26.40;;;5.53;;
13425;SDS011;6785;57.918;12.530;2023-05-27T00:20:47;21.57;;;6.23;;
13425;SDS011;6785;57.918;12.530;2023-05-27T00:23:14;31.37;;;5.17;;
13425;SDS011;6785;57.918;12.530;2023-05-27T00:25:41;29.90;;;5.90;;
13425;SDS011;6785;57.918;12.530;2023-05-27T00:28:08;22.50;;;5.50;;
13425;SDS011;6785;57.918;12.530;2023-05-27T00:30:36;25.47;;;5.07;;
13425;SDS011;6785;57.918;12.530;2023-05-27T00:33:03;24.00;;;6.00;;
13425;SDS011;6785;57.918;12.530;2023-05-27T00:35:29;33.83;;;6.57;;
13425;SDS011;6785;57.918;12.530;2023-05-27T00:37:56;22.87;;;6.07;;
13425;SDS011;6785;57.918;12.530;2023-05-27T00:40:25;28.37;;;5.50;;
13425;SDS011;6785;57.918;12.530;2023-05-27T00:42:55;26.10;;;5.77;;
13425;SDS011;6785;57.918;12.530;2023-05-27T00:45:21;31.70;;;6.43;;
13425;SDS011;6785;57.918;12.530;2023-05-27T00:47:49;29.47;;;5.77;;
13425;SDS011;6785;57.918;12.530;2023-05-27T00:50:17;21.80;;;4.40;;
13425;SDS011;6785;57.918;12.530;2023-05-27T00:52:44;21.53;;;4.93;;
13425;SDS011;6785;57.918;12.530;2023-05-27T00:55:11;16.90;;;4.43;;
13425;SDS011;6785;57.918;12.530;2023-05-27T00:57:39;26.03;;;5.50;;
13425;SDS011;6785;57.918;12.530;2023-05-27T01:00:06;27.90;;;5.73;;
13425;SDS011;6785;57.918;12.530;2023-05-27T01:02:37;15.73;;;4.73;;
13425;SDS011;6785;57.918;12.530;2023-05-27T01:05:08;24.10;;;5.63;;
13425;SDS011;6785;57.918;12.530;2023-05-27T01:07:38;24.67;;;5.80;;
13425;SDS011;6785;57.918;12.530;2023-05-27T01:10:15;22.53;;;5.07;;
13425;SDS011;6785;57.918;12.530;2023-05-27T01:12:51;21.30;;;5.47;;
13425;SDS011;6785;57.918;12.530;2023-05-27T01:15:25;20.57;;;5.13;;
13425;SDS011;6785;57.918;12.530;2023-05-27T01:17:55;23.20;;;5.43;;
13425;SDS011;6785;57.918;12.530;2023-05-27T01:20:24;21.33;;;6.17;;
13425;SDS011;6785;57.918;12.530;2023-05-27T01:22:53;19.33;;;4.93;;
13425;SDS011;6785;57.918;12.530;2023-05-27T01:25:22;19.27;;;5.67;;
13425;SDS011;6785;57.918;12.530;2023-05-27T01:27:49;24.90;;;5.83;;
13425;SDS011;6785;57.918;12.530;2023-05-27T01:30:17;24.13;;;5.20;;
13425;SDS011;6785;57.918;12.530;2023-05-27T01:32:46;21.40;;;6.20;;
13425;SDS011;6785;57.918;12.530;2023-05-27T01:35:20;21.70;;;5.80;;
13425;SDS011;6785;57.918;12.530;2023-05-27T01:37:51;27.13;;;5.50;;
13425;SDS011;6785;57.918;12.530;2023-05-27T01:40:21;26.03;;;6.30;;
13425;SDS011;6785;57.918;12.530;2023-05-27T01:42:48;26.43;;;6.13;;
13425;SDS011;6785;57.918;12.530;2023-05-27T01:45:15;23.27;;;6.03;;
13425;SDS011;6785;57.918;12.530;2023-05-27T01:47:43;15.90;;;5.47;;
13425;SDS011;6785;57.918;12.530;2023-05-27T01:50:10;20.27;;;5.37;;
13425;SDS011;6785;57.918;12.530;2023-05-27T01:52:37;23.83;;;5.43;;
13425;SDS011;6785;57.918;12.530;2023-05-27T01:55:06;20.27;;;4.93;;
13425;SDS011;6785;57.918;12.530;2023-05-27T01:57:33;26.67;;;5.53;;
13425;SDS011;6785;57.918;12.530;2023-05-27T02:00:00;17.77;;;4.47;;
13425;SDS011;6785;57.918;12.530;2023-05-27T02:02:28;21.50;;;5.60;;
13425;SDS011;6785;57.918;12.530;2023-05-27T02:04:56;24.40;;;5.10;;
13425;SDS011;6785;57.918;12.530;2023-05-27T02:07:23;17.27;;;4.83;;
13425;SDS011;6785;57.918;12.530;2023-05-27T02:09:51;20.20;;;4.97;;
13425;SDS011;6785;57.918;12.530;2023-05-27T02:12:19;30.53;;;6.37;;
13425;SDS011;6785;57.918;12.530;2023-05-27T02:14:46;18.10;;;5.27;;
13425;SDS011;6785;57.918;12.530;2023-05-27T02:17:14;19.30;;;5.97;;
13425;SDS011;6785;57.918;12.530;2023-05-27T02:19:41;20.93;;;4.80;;
13425;SDS011;6785;57.918;12.530;2023-05-27T02:22:08;30.07;;;5.63;;
13425;SDS011;6785;57.918;12.530;2023-05-27T02:24:35;18.03;;;5.50;;
13425;SDS011;6785;57.918;12.530;2023-05-27T02:27:02;25.73;;;5.87;;
13425;SDS011;6785;57.918;12.530;2023-05-27T02:29:32;20.63;;;5.27;;
13425;SDS011;6785;57.918;12.530;2023-05-27T02:31:58;18.30;;;5.00;;
13425;SDS011;6785;57.918;12.530;2023-05-27T02:34:25;17.90;;;4.50;;
13425;SDS011;6785;57.918;12.530;2023-05-27T02:36:52;17.53;;;5.97;;
13425;SDS011;6785;57.918;12.530;2023-05-27T02:39:19;22.60;;;5.03;;
13425;SDS011;6785;57.918;12.530;2023-05-27T02:41:46;17.50;;;4.93;;
13425;SDS011;6785;57.918;12.530;2023-05-27T02:44:13;18.53;;;5.17;;
13425;SDS011;6785;57.918;12.530;2023-05-27T02:46:41;23.67;;;5.57;;
13425;SDS011;6785;57.918;12.530;2023-05-27T02:49:08;23.53;;;5.70;;
13425;SDS011;6785;57.918;12.530;2023-05-27T02:51:35;22.63;;;5.53;;
13425;SDS011;6785;57.918;12.530;2023-05-27T02:54:02;15.63;;;6.20;;
13425;SDS011;6785;57.918;12.530;2023-05-27T02:56:29;23.13;;;5.80;;
13425;SDS011;6785;57.918;12.530;2023-05-27T02:58:56;17.53;;;4.90;;
13425;SDS011;6785;57.918;12.530;2023-05-27T03:01:23;16.73;;;5.03;;
13425;SDS011;6785;57.918;12.530;2023-05-27T03:03:51;25.00;;;5.50;;
13425;SDS011;6785;57.918;12.530;2023-05-27T03:06:18;17.73;;;5.27;;
13425;SDS011;6785;57.918;12.530;2023-05-27T03:08:45;24.37;;;6.77;;
13425;SDS011;6785;57.918;12.530;2023-05-27T03:11:11;26.10;;;5.93;;
13425;SDS011;6785;57.918;12.530;2023-05-27T03:13:38;23.23;;;4.80;;
13425;SDS011;6785;57.918;12.530;2023-05-27T03:16:05;18.87;;;5.67;;
13425;SDS011;6785;57.918;12.530;2023-05-27T03:18:32;20.27;;;5.53;;
13425;SDS011;6785;57.918;12.530;2023-05-27T03:21:00;16.13;;;4.63;;
13425;SDS011;6785;57.918;12.530;2023-05-27T03:23:27;26.83;;;5.57;;
13425;SDS011;6785;57.918;12.530;2023-05-27T03:25:54;25.73;;;4.60;;
13425;SDS011;6785;57.918;12.530;2023-05-27T03:28:20;16.47;;;4.87;;
13425;SDS011;6785;57.918;12.530;2023-05-27T03:30:47;19.90;;;6.23;;
13425;SDS011;6785;57.918;12.530;2023-05-27T03:33:14;18.53;;;4.80;;
13425;SDS011;6785;57.918;12.530;2023-05-27T03:35:41;14.23;;;4.50;;
13425;SDS011;6785;57.918;12.530;2023-05-27T03:38:09;19.73;;;5.03;;
13425;SDS011;6785;57.918;12.530;2023-05-27T03:40:36;22.00;;;4.87;;
13425;SDS011;6785;57.918;12.530;2023-05-27T03:43:02;19.63;;;5.60;;
13425;SDS011;6785;57.918;12.530;2023-05-27T03:45:29;19.13;;;4.80;;
13425;SDS011;6785;57.918;12.530;2023-05-27T03:47:56;20.80;;;5.23;;
13425;SDS011;6785;57.918;12.530;2023-05-27T03:50:23;23.30;;;5.70;;
13425;SDS011;6785;57.918;12.530;2023-05-27T03:52:49;24.73;;;6.43;;
13425;SDS011;6785;57.918;12.530;2023-05-27T03:55:17;23.93;;;6.73;;
13425;SDS011;6785;57.918;12.530;2023-05-27T03:57:45;24.80;;;5.70;;
13425;SDS011;6785;57.918;12.530;2023-05-27T04:00:12;21.03;;;5.30;;
13425;SDS011;6785;57.918;12.530;2023-05-27T04:02:39;17.57;;;5.17;;
13425;SDS011;6785;57.918;12.530;2023-05-27T04:05:06;16.47;;;4.70;;
13425;SDS011;6785;57.918;12.530;2023-05-27T04:07:33;21.67;;;6.00;;
13425;SDS011;6785;57.918;12.530;2023-05-27T04:10:00;27.30;;;6.83;;
13425;SDS011;6785;57.918;12.530;2023-05-27T04:12:29;19.70;;;6.83;;
13425;SDS011;6785;57.918;12.530;2023-05-27T04:14:56;14.33;;;5.53;;
13425;SDS011;6785;57.918;12.530;2023-05-27T04:17:23;22.87;;;6.50;;
13425;SDS011;6785;57.918;12.530;2023-05-27T04:19:50;22.57;;;6.80;;
13425;SDS011;6785;57.918;12.530;2023-05-27T04:22:17;21.93;;;6.10;;
13425;SDS011;6785;57.918;12.530;2023-05-27T04:24:44;24.97;;;6.70;;
13425;SDS011;6785;57.918;12.530;2023-05-27T04:27:12;25.37;;;6.63;;
13425;SDS011;6785;57.918;12.530;2023-05-27T04:29:43;20.60;;;6.30;;
13425;SDS011;6785;57.918;12.530;2023-05-27T04:32:10;23.73;;;6.40;;
13425;SDS011;6785;57.918;12.530;2023-05-27T04:34:37;26.30;;;6.60;;
13425;SDS011;6785;57.918;12.530;2023-05-27T04:37:06;19.17;;;6.20;;
13425;SDS011;6785;57.918;12.530;2023-05-27T04:39:34;20.80;;;5.83;;
13425;SDS011;6785;57.918;12.530;2023-05-27T04:42:01;18.37;;;5.60;;
13425;SDS011;6785;57.918;12.530;2023-05-27T04:44:29;15.87;;;6.10;;
13425;SDS011;6785;57.918;12.530;2023-05-27T04:46:57;17.57;;;5.50;;
13425;SDS011;6785;57.918;12.530;2023-05-27T04:49:24;21.03;;;6.80;;
13425;SDS011;6785;57.918;12.530;2023-05-27T04:51:50;13.67;;;5.70;;
13425;SDS011;6785;57.918;12.530;2023-05-27T04:54:17;17.73;;;5.20;;
13425;SDS011;6785;57.918;12.530;2023-05-27T04:56:44;13.03;;;5.10;;
13425;SDS011;6785;57.918;12.530;2023-05-27T04:59:11;17.20;;;5.83;;
13425;SDS011;6785;57.918;12.530;2023-05-27T05:01:41;16.03;;;5.67;;
13425;SDS011;6785;57.918;12.530;2023-05-27T05:04:36;13.57;;;5.30;;
13425;SDS011;6785;57.918;12.530;2023-05-27T05:07:03;16.07;;;5.03;;
13425;SDS011;6785;57.918;12.530;2023-05-27T05:09:30;18.07;;;5.23;;
13425;SDS011;6785;57.918;12.530;2023-05-27T05:11:57;15.77;;;5.23;;
13425;SDS011;6785;57.918;12.530;2023-05-27T05:14:24;19.40;;;5.57;;
13425;SDS011;6785;57.918;12.530;2023-05-27T05:16:51;12.03;;;4.93;;
13425;SDS011;6785;57.918;12.530;2023-05-27T05:19:17;15.30;;;5.33;;
13425;SDS011;6785;57.918;12.530;2023-05-27T05:21:46;13.33;;;4.67;;
13425;SDS011;6785;57.918;12.530;2023-05-27T05:24:13;11.17;;;4.27;;
13425;SDS011;6785;57.918;12.530;2023-05-27T05:26:39;16.63;;;5.20;;
13425;SDS011;6785;57.918;12.530;2023-05-27T05:29:06;16.07;;;4.50;;
13425;SDS011;6785;57.918;12.530;2023-05-27T05:31:33;17.00;;;4.87;;
13425;SDS011;6785;57.918;12.530;2023-05-27T05:34:00;15.43;;;4.73;;
13425;SDS011;6785;57.918;12.530;2023-05-27T05:36:27;12.73;;;4.63;;
13425;SDS011;6785;57.918;12.530;2023-05-27T05:38:55;14.13;;;4.90;;
13425;SDS011;6785;57.918;12.530;2023-05-27T05:41:22;10.10;;;3.90;;
13425;SDS011;6785;57.918;12.530;2023-05-27T05:43:49;11.03;;;4.30;;
13425;SDS011;6785;57.918;12.530;2023-05-27T05:46:16;13.27;;;5.13;;
13425;SDS011;6785;57.918;12.530;2023-05-27T05:48:43;7.30;;;3.80;;
13425;SDS011;6785;57.918;12.530;2023-05-27T05:51:09;14.27;;;4.17;;
13425;SDS011;6785;57.918;12.530;2023-05-27T05:53:36;8.83;;;3.37;;
13425;SDS011;6785;57.918;12.530;2023-05-27T05:56:05;11.13;;;4.27;;
13425;SDS011;6785;57.918;12.530;2023-05-27T05:58:32;10.70;;;4.20;;
13425;SDS011;6785;57.918;12.530;2023-05-27T06:00:58;9.00;;;3.87;;
13425;SDS011;6785;57.918;12.530;2023-05-27T06:03:25;10.97;;;3.97;;
13425;SDS011;6785;57.918;12.530;2023-05-27T06:05:52;12.63;;;3.30;;
13425;SDS011;6785;57.918;12.530;2023-05-27T06:08:19;10.23;;;3.40;;
13425;SDS011;6785;57.918;12.530;2023-05-27T06:10:45;13.43;;;3.67;;
13425;SDS011;6785;57.918;12.530;2023-05-27T06:13:13;10.70;;;3.63;;
13425;SDS011;6785;57.918;12.530;2023-05-27T06:15:41;9.20;;;3.83;;
13425;SDS011;6785;57.918;12.530;2023-05-27T06:18:08;12.17;;;3.70;;
13425;SDS011;6785;57.918;12.530;2023-05-27T06:20:35;11.67;;;3.93;;
13425;SDS011;6785;57.918;12.530;2023-05-27T06:23:02;8.33;;;3.03;;
13425;SDS011;6785;57.918;12.530;2023-05-27T06:25:29;9.53;;;3.70;;
13425;SDS011;6785;57.918;12.530;2023-05-27T06:27:55;12.77;;;3.30;;
13425;SDS011;6785;57.918;12.530;2023-05-27T06:30:24;7.63;;;3.50;;
13425;SDS011;6785;57.918;12.530;2023-05-27T06:32:51;11.50;;;3.77;;
13425;SDS011;6785;57.918;12.530;2023-05-27T06:35:18;12.77;;;2.80;;
13425;SDS011;6785;57.918;12.530;2023-05-27T06:37:45;7.00;;;2.97;;
13425;SDS011;6785;57.918;12.530;2023-05-27T06:40:12;9.57;;;3.23;;
13425;SDS011;6785;57.918;12.530;2023-05-27T06:42:39;7.77;;;3.27;;
13425;SDS011;6785;57.918;12.530;2023-05-27T06:45:06;13.20;;;3.10;;
13425;SDS011;6785;57.918;12.530;2023-05-27T06:47:35;8.37;;;2.80;;
13425;SDS011;6785;57.918;12.530;2023-05-27T06:50:02;7.80;;;2.97;;
13425;SDS011;6785;57.918;12.530;2023-05-27T06:52:28;7.23;;;2.93;;
13425;SDS011;6785;57.918;12.530;2023-05-27T06:54:55;4.87;;;2.60;;
13425;SDS011;6785;57.918;12.530;2023-05-27T06:57:22;6.50;;;2.70;;
13425;SDS011;6785;57.918;12.530;2023-05-27T06:59:48;7.13;;;2.97;;
13425;SDS011;6785;57.918;12.530;2023-05-27T07:02:15;8.33;;;2.67;;
13425;SDS011;6785;57.918;12.530;2023-05-27T07:04:43;7.00;;;2.83;;
13425;SDS011;6785;57.918;12.530;2023-05-27T07:07:10;7.23;;;2.90;;
13425;SDS011;6785;57.918;12.530;2023-05-27T07:09:37;8.37;;;2.60;;
13425;SDS011;6785;57.918;12.530;2023-05-27T07:12:04;7.43;;;3.00;;
13425;SDS011;6785;57.918;12.530;2023-05-27T07:14:32;5.47;;;2.53;;
13425;SDS011;6785;57.918;12.530;2023-05-27T07:16:59;8.73;;;2.30;;
13425;SDS011;6785;57.918;12.530;2023-05-27T07:19:26;4.10;;;2.00;;
13425;SDS011;6785;57.918;12.530;2023-05-27T07:21:54;6.60;;;2.30;;
13425;SDS011;6785;57.918;12.530;2023-05-27T07:24:21;6.97;;;2.30;;
13425;SDS011;6785;57.918;12.530;2023-05-27T07:26:47;4.43;;;2.57;;
13425;SDS011;6785;57.918;12.530;2023-05-27T07:29:14;6.93;;;2.70;;
13425;SDS011;6785;57.918;12.530;2023-05-27T07:31:41;6.50;;;2.60;;
13425;SDS011;6785;57.918;12.530;2023-05-27T07:34:08;5.07;;;2.27;;
13425;SDS011;6785;57.918;12.530;2023-05-27T07:36:35;5.47;;;2.13;;
13425;SDS011;6785;57.918;12.530;2023-05-27T07:39:04;6.20;;;2.43;;
13425;SDS011;6785;57.918;12.530;2023-05-27T07:41:30;5.27;;;2.53;;
13425;SDS011;6785;57.918;12.530;2023-05-27T07:43:58;5.50;;;2.40;;
13425;SDS011;6785;57.918;12.530;2023-05-27T07:46:25;4.50;;;2.57;;
13425;SDS011;6785;57.918;12.530;2023-05-27T07:48:51;6.13;;;2.90;;
13425;SDS011;6785;57.918;12.530;2023-05-27T07:51:18;7.17;;;3.20;;
13425;SDS011;6785;57.918;12.530;2023-05-27T07:53:45;7.83;;;2.67;;
13425;SDS011;6785;57.918;12.530;2023-05-27T07:56:14;5.03;;;2.43;;
13425;SDS011;6785;57.918;12.530;2023-05-27T07:58:41;10.00;;;2.43;;
13425;SDS011;6785;57.918;12.530;2023-05-27T08:01:07;8.30;;;2.60;;
13425;SDS011;6785;57.918;12.530;2023-05-27T08:03:34;7.10;;;2.40;;
13425;SDS011;6785;57.918;12.530;2023-05-27T08:06:01;6.93;;;2.57;;
13425;SDS011;6785;57.918;12.530;2023-05-27T08:08:28;7.73;;;2.77;;
13425;SDS011;6785;57.918;12.530;2023-05-27T08:10:55;9.13;;;3.10;;
13425;SDS011;6785;57.918;12.530;2023-05-27T08:13:24;7.23;;;2.83;;
13425;SDS011;6785;57.918;12.530;2023-05-27T08:15:51;5.63;;;2.50;;
13425;SDS011;6785;57.918;12.530;2023-05-27T08:18:18;5.47;;;2.63;;
13425;SDS011;6785;57.918;12.530;2023-05-27T08:20:45;9.33;;;3.30;;
13425;SDS011;6785;57.918;12.530;2023-05-27T08:23:12;7.40;;;3.03;;
13425;SDS011;6785;57.918;12.530;2023-05-27T08:25:39;6.83;;;3.10;;
13425;SDS011;6785;57.918;12.530;2023-05-27T08:28:06;7.70;;;2.87;;
13425;SDS011;6785;57.918;12.530;2023-05-27T08:30:34;9.93;;;3.00;;
13425;SDS011;6785;57.918;12.530;2023-05-27T08:33:01;7.77;;;3.10;;
13425;SDS011;6785;57.918;12.530;2023-05-27T08:35:28;7.00;;;3.10;;
13425;SDS011;6785;57.918;12.530;2023-05-27T08:37:54;9.13;;;3.07;;
13425;SDS011;6785;57.918;12.530;2023-05-27T08:40:21;4.80;;;2.77;;
13425;SDS011;6785;57.918;12.530;2023-05-27T08:42:48;9.27;;;3.17;;
13425;SDS011;6785;57.918;12.530;2023-05-27T08:45:15;6.40;;;2.63;;
13425;SDS011;6785;57.918;12.530;2023-05-27T08:47:43;6.63;;;3.03;;
13425;SDS011;6785;57.918;12.530;2023-05-27T08:50:13;7.60;;;3.00;;
13425;SDS011;6785;57.918;12.530;2023-05-27T08:52:42;9.43;;;3.20;;
13425;SDS011;6785;57.918;12.530;2023-05-27T08:55:12;6.40;;;3.07;;
13425;SDS011;6785;57.918;12.530;2023-05-27T08:57:42;5.60;;;2.70;;
13425;SDS011;6785;57.918;12.530;2023-05-27T09:00:13;7.57;;;3.13;;
13425;SDS011;6785;57.918;12.530;2023-05-27T09:02:40;5.80;;;2.87;;
13425;SDS011;6785;57.918;12.530;2023-05-27T09:05:09;6.00;;;3.03;;
13425;SDS011;6785;57.918;12.530;2023-05-27T09:07:37;6.80;;;3.10;;
13425;SDS011;6785;57.918;12.530;2023-05-27T09:10:04;8.17;;;3.17;;
13425;SDS011;6785;57.918;12.530;2023-05-27T09:12:32;6.90;;;3.10;;
13425;SDS011;6785;57.918;12.530;2023-05-27T09:15:00;4.47;;;2.53;;
13425;SDS011;6785;57.918;12.530;2023-05-27T09:17:27;6.80;;;3.10;;
13425;SDS011;6785;57.918;12.530;2023-05-27T09:19:55;8.80;;;3.37;;
13425;SDS011;6785;57.918;12.530;2023-05-27T09:22:23;8.37;;;3.10;;
13425;SDS011;6785;57.918;12.530;2023-05-27T09:24:52;6.30;;;2.90;;
13425;SDS011;6785;57.918;12.530;2023-05-27T09:27:23;7.80;;;3.43;;
13425;SDS011;6785;57.918;12.530;2023-05-27T09:29:51;4.60;;;2.83;;
13425;SDS011;6785;57.918;12.530;2023-05-27T09:32:23;7.30;;;3.53;;
13425;SDS011;6785;57.918;12.530;2023-05-27T09:34:50;7.20;;;3.00;;
13425;SDS011;6785;57.918;12.530;2023-05-27T09:37:17;11.03;;;3.40;;
13425;SDS011;6785;57.918;12.530;2023-05-27T09:39:47;7.37;;;3.10;;
13425;SDS011;6785;57.918;12.530;2023-05-27T09:42:13;6.17;;;3.00;;
13425;SDS011;6785;57.918;12.530;2023-05-27T09:44:40;6.63;;;3.30;;
13425;SDS011;6785;57.918;12.530;2023-05-27T09:47:07;9.43;;;3.03;;
13425;SDS011;6785;57.918;12.530;2023-05-27T09:49:37;10.10;;;3.80;;
13425;SDS011;6785;57.918;12.530;2023-05-27T09:52:05;8.43;;;3.53;;
13425;SDS011;6785;57.918;12.530;2023-05-27T09:54:32;9.23;;;3.63;;
13425;SDS011;6785;57.918;12.530;2023-05-27T09:57:02;8.13;;;2.97;;
13425;SDS011;6785;57.918;12.530;2023-05-27T09:59:31;9.17;;;3.87;;
13425;SDS011;6785;57.918;12.530;2023-05-27T10:01:58;6.80;;;3.13;;
13425;SDS011;6785;57.918;12.530;2023-05-27T10:04:27;6.70;;;3.40;;
13425;SDS011;6785;57.918;12.530;2023-05-27T10:06:54;11.93;;;3.50;;
13425;SDS011;6785;57.918;12.530;2023-05-27T10:09:22;11.40;;;3.60;;
13425;SDS011;6785;57.918;12.530;2023-05-27T10:11:49;11.57;;;3.37;;
13425;SDS011;6785;57.918;12.530;2023-05-27T10:14:17;11.50;;;3.80;;
13425;SDS011;6785;57.918;12.530;2023-05-27T10:16:50;8.33;;;3.67;;
13425;SDS011;6785;57.918;12.530;2023-05-27T10:19:19;12.30;;;4.20;;
13425;SDS011;6785;57.918;12.530;2023-05-27T10:21:46;10.20;;;3.40;;
13425;SDS011;6785;57.918;12.530;2023-05-27T10:24:13;9.80;;;3.60;;
13425;SDS011;6785;57.918;12.530;2023-05-27T10:26:40;10.60;;;3.60;;
13425;SDS011;6785;57.918;12.530;2023-05-27T10:29:08;7.07;;;4.03;;
13425;SDS011;6785;57.918;12.530;2023-05-27T10:31:43;10.07;;;4.03;;
13425;SDS011;6785;57.918;12.530;2023-05-27T10:34:10;11.23;;;3.90;;
13425;SDS011;6785;57.918;12.530;2023-05-27T10:36:37;14.93;;;3.90;;
13425;SDS011;6785;57.918;12.530;2023-05-27T10:39:05;9.60;;;3.90;;
13425;SDS011;6785;57.918;12.530;2023-05-27T10:41:39;9.07;;;3.53;;
13425;SDS011;6785;57.918;12.530;2023-05-27T10:44:06;7.87;;;3.63;;
13425;SDS011;6785;57.918;12.530;2023-05-27T10:46:41;8.30;;;3.73;;
13425;SDS011;6785;57.918;12.530;2023-05-27T10:49:22;12.43;;;4.00;;
13425;SDS011;6785;57.918;12.530;2023-05-27T10:51:52;12.17;;;3.87;;
13425;SDS011;6785;57.918;12.530;2023-05-27T10:54:24;9.27;;;3.67;;
13425;SDS011;6785;57.918;12.530;2023-05-27T10:56:51;11.83;;;3.73;;
13425;SDS011;6785;57.918;12.530;2023-05-27T10:59:19;10.03;;;3.70;;
13425;SDS011;6785;57.918;12.530;2023-05-27T11:01:50;10.83;;;4.10;;
13425;SDS011;6785;57.918;12.530;2023-05-27T11:04:18;10.37;;;4.00;;
13425;SDS011;6785;57.918;12.530;2023-05-27T11:06:55;9.70;;;3.57;;
13425;SDS011;6785;57.918;12.530;2023-05-27T11:09:23;9.40;;;3.93;;
13425;SDS011;6785;57.918;12.530;2023-05-27T11:11:49;8.17;;;3.83;;
13425;SDS011;6785;57.918;12.530;2023-05-27T11:14:16;6.97;;;3.17;;
13425;SDS011;6785;57.918;12.530;2023-05-27T11:16:45;9.80;;;3.70;;
13425;SDS011;6785;57.918;12.530;2023-05-27T11:19:15;13.37;;;3.40;;
13425;SDS011;6785;57.918;12.530;2023-05-27T11:21:44;8.37;;;3.30;;
13425;SDS011;6785;57.918;12.530;2023-05-27T11:24:14;7.00;;;3.07;;
13425;SDS011;6785;57.918;12.530;2023-05-27T11:26:42;9.27;;;3.40;;
13425;SDS011;6785;57.918;12.530;2023-05-27T11:29:11;6.37;;;3.27;;
13425;SDS011;6785;57.918;12.530;2023-05-27T11:31:38;10.60;;;3.87;;
13425;SDS011;6785;57.918;12.530;2023-05-27T11:34:11;12.07;;;4.23;;
13425;SDS011;6785;57.918;12.530;2023-05-27T11:36:39;9.40;;;3.60;;
13425;SDS011;6785;57.918;12.530;2023-05-27T11:39:10;8.30;;;3.37;;
13425;SDS011;6785;57.918;12.530;2023-05-27T11:41:47;7.40;;;3.40;;
13425;SDS011;6785;57.918;12.530;2023-05-27T11:44:14;10.47;;;3.80;;
13425;SDS011;6785;57.918;12.530;2023-05-27T11:46:42;8.13;;;3.80;;
13425;SDS011;6785;57.918;12.530;2023-05-27T11:49:11;9.97;;;3.93;;
13425;SDS011;6785;57.918;12.530;2023-05-27T11:51:40;9.87;;;3.60;;
13425;SDS011;6785;57.918;12.530;2023-05-27T11:54:14;8.30;;;3.20;;
13425;SDS011;6785;57.918;12.530;2023-05-27T11:56:43;9.10;;;3.87;;
13425;SDS011;6785;57.918;12.530;2023-05-27T11:59:10;16.13;;;3.93;;
13425;SDS011;6785;57.918;12.530;2023-05-27T12:01:39;10.47;;;3.90;;
13425;SDS011;6785;57.918;12.530;2023-05-27T12:04:06;8.63;;;4.00;;
13425;SDS011;6785;57.918;12.530;2023-05-27T12:06:32;9.30;;;4.00;;
13425;SDS011;6785;57.918;12.530;2023-05-27T12:09:01;9.57;;;3.73;;
13425;SDS011;6785;57.918;12.530;2023-05-27T12:11:28;7.57;;;3.50;;
13425;SDS011;6785;57.918;12.530;2023-05-27T12:13:55;10.20;;;3.63;;
13425;SDS011;6785;57.918;12.530;2023-05-27T12:16:21;7.97;;;3.80;;
13425;SDS011;6785;57.918;12.530;2023-05-27T12:18:48;7.30;;;3.87;;
13425;SDS011;6785;57.918;12.530;2023-05-27T12:21:16;13.67;;;3.70;;
13425;SDS011;6785;57.918;12.530;2023-05-27T12:23:43;7.80;;;3.70;;
13425;SDS011;6785;57.918;12.530;2023-05-27T12:26:12;8.20;;;3.53;;
13425;SDS011;6785;57.918;12.530;2023-05-27T12:28:39;9.60;;;3.70;;
13425;SDS011;6785;57.918;12.530;2023-05-27T12:31:06;10.70;;;3.63;;
13425;SDS011;6785;57.918;12.530;2023-05-27T12:33:33;10.30;;;3.80;;
13425;SDS011;6785;57.918;12.530;2023-05-27T12:36:01;8.63;;;3.43;;
13425;SDS011;6785;57.918;12.530;2023-05-27T12:38:30;10.17;;;3.50;;
13425;SDS011;6785;57.918;12.530;2023-05-27T12:40:57;11.20;;;3.43;;
13425;SDS011;6785;57.918;12.530;2023-05-27T12:43:25;8.87;;;3.80;;
13425;SDS011;6785;57.918;12.530;2023-05-27T12:45:52;12.57;;;4.30;;
13425;SDS011;6785;57.918;12.530;2023-05-27T12:48:19;8.67;;;3.47;;
13425;SDS011;6785;57.918;12.530;2023-05-27T12:50:46;12.77;;;3.70;;
13425;SDS011;6785;57.918;12.530;2023-05-27T12:53:13;11.40;;;3.37;;
13425;SDS011;6785;57.918;12.530;2023-05-27T12:55:42;8.43;;;3.37;;
13425;SDS011;6785;57.918;12.530;2023-05-27T12:58:09;8.23;;;3.50;;
13425;SDS011;6785;57.918;12.530;2023-05-27T13:00:37;10.20;;;3.63;;
13425;SDS011;6785;57.918;12.530;2023-05-27T13:03:04;11.13;;;4.10;;
13425;SDS011;6785;57.918;12.530;2023-05-27T13:05:30;6.67;;;3.23;;
13425;SDS011;6785;57.918;12.530;2023-05-27T13:07:58;10.90;;;3.90;;
13425;SDS011;6785;57.918;12.530;2023-05-27T13:10:26;8.60;;;3.50;;
13425;SDS011;6785;57.918;12.530;2023-05-27T13:12:54;14.67;;;3.37;;
13425;SDS011;6785;57.918;12.530;2023-05-27T13:15:21;9.43;;;3.53;;
13425;SDS011;6785;57.918;12.530;2023-05-27T13:17:50;8.43;;;3.43;;
13425;SDS011;6785;57.918;12.530;2023-05-27T13:20:18;6.20;;;3.10;;
13425;SDS011;6785;57.918;12.530;2023-05-27T13:22:46;11.83;;;3.80;;
13425;SDS011;6785;57.918;12.530;2023-05-27T13:25:13;6.03;;;3.43;;
13425;SDS011;6785;57.918;12.530;2023-05-27T13:27:40;9.07;;;3.67;;
13425;SDS011;6785;57.918;12.530;2023-05-27T13:30:09;10.00;;;3.47;;
13425;SDS011;6785;57.918;12.530;2023-05-27T13:32:38;9.20;;;3.93;;
13425;SDS011;6785;57.918;12.530;2023-05-27T13:35:07;9.53;;;3.93;;
13425;SDS011;6785;57.918;12.530;2023-05-27T13:37:34;10.17;;;3.57;;
13425;SDS011;6785;57.918;12.530;2023-05-27T13:40:00;7.47;;;2.90;;
13425;SDS011;6785;57.918;12.530;2023-05-27T13:42:28;9.13;;;3.20;;
13425;SDS011;6785;57.918;12.530;2023-05-27T13:44:55;9.07;;;3.83;;
13425;SDS011;6785;57.918;12.530;2023-05-27T13:47:22;9.20;;;3.07;;
13425;SDS011;6785;57.918;12.530;2023-05-27T13:49:48;10.87;;;3.43;;
13425;SDS011;6785;57.918;12.530;2023-05-27T13:52:16;9.50;;;3.57;;
13425;SDS011;6785;57.918;12.530;2023-05-27T13:54:43;10.40;;;3.17;;
13425;SDS011;6785;57.918;12.530;2023-05-27T13:57:10;8.90;;;3.20;;
13425;SDS011;6785;57.918;12.530;2023-05-27T13:59:37;8.83;;;3.20;;
13425;SDS011;6785;57.918;12.530;2023-05-27T14:02:04;8.00;;;3.40;;
13425;SDS011;6785;57.918;12.530;2023-05-27T14:04:33;10.60;;;3.47;;
13425;SDS011;6785;57.918;12.530;2023-05-27T14:06:59;8.00;;;2.90;;
13425;SDS011;6785;57.918;12.530;2023-05-27T14:09:27;7.43;;;3.03;;
13425;SDS011;6785;57.918;12.530;2023-05-27T14:11:54;12.20;;;3.50;;
13425;SDS011;6785;57.918;12.530;2023-05-27T14:14:22;7.80;;;3.37;;
13425;SDS011;6785;57.918;12.530;2023-05-27T14:16:49;7.67;;;3.17;;
13425;SDS011;6785;57.918;12.530;2023-05-27T14:19:15;6.17;;;2.93;;
13425;SDS011;6785;57.918;12.530;2023-05-27T14:21:42;8.87;;;3.33;;
13425;SDS011;6785;57.918;12.530;2023-05-27T14:24:10;8.73;;;3.30;;
13425;SDS011;6785;57.918;12.530;2023-05-27T14:26:38;8.60;;;3.20;;
13425;SDS011;6785;57.918;12.530;2023-05-27T14:29:06;9.87;;;2.70;;
13425;SDS011;6785;57.918;12.530;2023-05-27T14:31:33;8.70;;;3.70;;
13425;SDS011;6785;57.918;12.530;2023-05-27T14:34:00;9.43;;;3.40;;
13425;SDS011;6785;57.918;12.530;2023-05-27T14:36:27;10.10;;;3.53;;
13425;SDS011;6785;57.918;12.530;2023-05-27T14:38:54;14.00;;;3.97;;
13425;SDS011;6785;57.918;12.530;2023-05-27T14:41:21;11.23;;;3.27;;
13425;SDS011;6785;57.918;12.530;2023-05-27T14:43:49;8.33;;;3.20;;